sensor_id;sensor_type;location;lat;lon;timestamp;pressure;altitude;pressure_sealevel;temperature;humidity
74045;BME280;62389;51.412;5.436;2023-10-08T00:00:23;102170.41;;;16.75;78.59
74045;BME280;62389;51.412;5.436;2023-10-08T00:03:06;102180.25;;;16.71;78.68
74045;BME280;62389;51.412;5.436;2023-10-08T00:05:37;102193.72;;;16.65;79.16
74045;BME280;62389;51.412;5.436;2023-10-08T00:08:04;102200.03;;;16.63;78.79
74045;BME280;62389;51.412;5.436;2023-10-08T00:10:37;102194.09;;;16.57;79.00
74045;BME280;62389;51.412;5.436;2023-10-08T00:13:05;102202.16;;;16.54;79.24
74045;BME280;62389;51.412;5.436;2023-10-08T00:15:33;102197.31;;;16.45;79.33
74045;BME280;62389;51.412;5.436;2023-10-08T00:18:01;102208.03;;;16.42;79.79
74045;BME280;62389;51.412;5.436;2023-10-08T00:20:26;102202.25;;;16.34;79.91
74045;BME280;62389;51.412;5.436;2023-10-08T00:23:00;102202.16;;;16.36;80.50
74045;BME280;62389;51.412;5.436;2023-10-08T00:25:27;102204.81;;;16.36;79.84
74045;BME280;62389;51.412;5.436;2023-10-08T00:27:53;102209.22;;;16.35;79.33
74045;BME280;62389;51.412;5.436;2023-10-08T00:30:18;102198.81;;;16.32;79.82
74045;BME280;62389;51.412;5.436;2023-10-08T00:32:44;102219.94;;;16.32;79.25
74045;BME280;62389;51.412;5.436;2023-10-08T00:35:10;102208.66;;;16.28;79.62
74045;BME280;62389;51.412;5.436;2023-10-08T00:37:46;102208.94;;;16.22;79.51
74045;BME280;62389;51.412;5.436;2023-10-08T00:40:13;102215.38;;;16.17;80.30
74045;BME280;62389;51.412;5.436;2023-10-08T00:42:44;102218.22;;;16.12;79.99
74045;BME280;62389;51.412;5.436;2023-10-08T00:45:11;102222.63;;;16.12;79.22
74045;BME280;62389;51.412;5.436;2023-10-08T00:47:40;102211.28;;;16.10;80.54
74045;BME280;62389;51.412;5.436;2023-10-08T00:50:11;102224.47;;;16.10;80.17
74045;BME280;62389;51.412;5.436;2023-10-08T00:52:57;102214.84;;;16.09;79.64
74045;BME280;62389;51.412;5.436;2023-10-08T00:55:26;102214.06;;;16.07;79.73
74045;BME280;62389;51.412;5.436;2023-10-08T00:57:58;102222.13;;;16.03;79.28
74045;BME280;62389;51.412;5.436;2023-10-08T01:00:32;102232.22;;;15.94;79.41
74045;BME280;62389;51.412;5.436;2023-10-08T01:03:05;102237.69;;;15.89;80.05
74045;BME280;62389;51.412;5.436;2023-10-08T01:05:40;102224.84;;;15.82;79.55
74045;BME280;62389;51.412;5.436;2023-10-08T01:08:16;102233.63;;;15.82;80.25
74045;BME280;62389;51.412;5.436;2023-10-08T01:10:58;102227.25;;;15.86;80.20
74045;BME280;62389;51.412;5.436;2023-10-08T01:13:25;102223.66;;;15.89;79.35
74045;BME280;62389;51.412;5.436;2023-10-08T01:15:52;102214.34;;;15.80;79.74
74045;BME280;62389;51.412;5.436;2023-10-08T01:18:17;102217.19;;;15.75;79.48
74045;BME280;62389;51.412;5.436;2023-10-08T01:20:44;102198.91;;;15.71;79.56
74045;BME280;62389;51.412;5.436;2023-10-08T01:23:12;102196.22;;;15.72;79.87
74045;BME280;62389;51.412;5.436;2023-10-08T01:25:46;102202.44;;;15.71;79.80
74045;BME280;62389;51.412;5.436;2023-10-08T01:28:23;102206.69;;;15.74;79.30
74045;BME280;62389;51.412;5.436;2023-10-08T01:30:57;102209.41;;;15.72;80.00
74045;BME280;62389;51.412;5.436;2023-10-08T01:33:26;102210.38;;;15.70;79.26
74045;BME280;62389;51.412;5.436;2023-10-08T01:35:55;102205.13;;;15.70;79.45
74045;BME280;62389;51.412;5.436;2023-10-08T01:38:28;102201.56;;;15.71;78.83
74045;BME280;62389;51.412;5.436;2023-10-08T01:40:53;102191.44;;;15.60;78.78
74045;BME280;62389;51.412;5.436;2023-10-08T01:43:20;102188.22;;;15.53;78.97
74045;BME280;62389;51.412;5.436;2023-10-08T01:45:46;102183.88;;;15.52;79.24
74045;BME280;62389;51.412;5.436;2023-10-08T01:48:16;102186.50;;;15.52;79.19
74045;BME280;62389;51.412;5.436;2023-10-08T01:50:56;102189.94;;;15.54;79.22
74045;BME280;62389;51.412;5.436;2023-10-08T01:53:24;102187.28;;;15.54;78.90
74045;BME280;62389;51.412;5.436;2023-10-08T01:55:52;102191.81;;;15.51;78.78
74045;BME280;62389;51.412;5.436;2023-10-08T01:58:19;102192.72;;;15.51;78.53
74045;BME280;62389;51.412;5.436;2023-10-08T02:00:45;102195.38;;;15.50;78.71
74045;BME280;62389;51.412;5.436;2023-10-08T02:03:12;102199.03;;;15.47;79.27
74045;BME280;62389;51.412;5.436;2023-10-08T02:05:41;102193.22;;;15.39;78.57
74045;BME280;62389;51.412;5.436;2023-10-08T02:08:11;102210.81;;;15.39;78.88
74045;BME280;62389;51.412;5.436;2023-10-08T02:10:38;102217.13;;;15.35;79.28
74045;BME280;62389;51.412;5.436;2023-10-08T02:13:05;102209.31;;;15.33;79.52
74045;BME280;62389;51.412;5.436;2023-10-08T02:15:31;102218.13;;;15.32;79.25
74045;BME280;62389;51.412;5.436;2023-10-08T02:17:56;102227.00;;;15.29;79.09
74045;BME280;62389;51.412;5.436;2023-10-08T02:20:23;102212.19;;;15.27;79.16
74045;BME280;62389;51.412;5.436;2023-10-08T02:22:49;102211.38;;;15.25;79.13
74045;BME280;62389;51.412;5.436;2023-10-08T02:25:15;102217.69;;;15.21;79.38
74045;BME280;62389;51.412;5.436;2023-10-08T02:27:40;102217.00;;;15.17;79.97
74045;BME280;62389;51.412;5.436;2023-10-08T02:30:07;102218.78;;;15.17;79.77
74045;BME280;62389;51.412;5.436;2023-10-08T02:32:35;102216.31;;;15.12;80.22
74045;BME280;62389;51.412;5.436;2023-10-08T02:35:02;102220.47;;;15.18;79.45
74045;BME280;62389;51.412;5.436;2023-10-08T02:37:27;102213.69;;;15.12;79.92
74045;BME280;62389;51.412;5.436;2023-10-08T02:39:53;102219.00;;;15.11;80.19
74045;BME280;62389;51.412;5.436;2023-10-08T02:42:19;102223.38;;;15.12;80.15
74045;BME280;62389;51.412;5.436;2023-10-08T02:44:44;102214.53;;;15.13;80.13
74045;BME280;62389;51.412;5.436;2023-10-08T02:47:11;102227.78;;;15.11;80.37
74045;BME280;62389;51.412;5.436;2023-10-08T02:49:46;102221.16;;;15.01;80.17
74045;BME280;62389;51.412;5.436;2023-10-08T02:52:13;102224.00;;;14.96;80.97
74045;BME280;62389;51.412;5.436;2023-10-08T02:54:41;102240.66;;;14.97;80.67
74045;BME280;62389;51.412;5.436;2023-10-08T02:57:07;102237.94;;;14.98;80.90
74045;BME280;62389;51.412;5.436;2023-10-08T02:59:39;102237.84;;;15.01;80.46
74045;BME280;62389;51.412;5.436;2023-10-08T03:02:07;102238.06;;;14.95;80.42
74045;BME280;62389;51.412;5.436;2023-10-08T03:04:40;102234.34;;;15.01;80.03
74045;BME280;62389;51.412;5.436;2023-10-08T03:07:05;102234.34;;;15.01;80.61
74045;BME280;62389;51.412;5.436;2023-10-08T03:09:36;102239.63;;;15.01;81.40
74045;BME280;62389;51.412;5.436;2023-10-08T03:12:07;102238.88;;;14.97;80.30
74045;BME280;62389;51.412;5.436;2023-10-08T03:14:35;102238.97;;;14.94;80.88
74045;BME280;62389;51.412;5.436;2023-10-08T03:17:13;102240.88;;;14.91;80.75
74045;BME280;62389;51.412;5.436;2023-10-08T03:19:45;102241.63;;;14.94;81.90
74045;BME280;62389;51.412;5.436;2023-10-08T03:22:11;102237.38;;;14.90;81.99
74045;BME280;62389;51.412;5.436;2023-10-08T03:24:37;102247.06;;;14.90;81.43
74045;BME280;62389;51.412;5.436;2023-10-08T03:27:04;102240.09;;;14.89;81.09
74045;BME280;62389;51.412;5.436;2023-10-08T03:29:48;102250.63;;;14.89;81.53
74045;BME280;62389;51.412;5.436;2023-10-08T03:32:14;102254.03;;;14.91;81.40
74045;BME280;62389;51.412;5.436;2023-10-08T03:34:47;102263.69;;;14.92;82.29
74045;BME280;62389;51.412;5.436;2023-10-08T03:37:15;102268.09;;;14.91;81.92
74045;BME280;62389;51.412;5.436;2023-10-08T03:39:50;102272.38;;;14.94;80.71
74045;BME280;62389;51.412;5.436;2023-10-08T03:42:38;102263.91;;;14.86;81.15
74045;BME280;62389;51.412;5.436;2023-10-08T03:45:07;102270.94;;;14.85;80.91
74045;BME280;62389;51.412;5.436;2023-10-08T03:47:38;102272.00;;;14.81;82.01
74045;BME280;62389;51.412;5.436;2023-10-08T03:50:07;102272.22;;;14.75;82.09
74045;BME280;62389;51.412;5.436;2023-10-08T03:52:37;102279.22;;;14.76;81.87
74045;BME280;62389;51.412;5.436;2023-10-08T03:55:06;102280.09;;;14.76;82.19
74045;BME280;62389;51.412;5.436;2023-10-08T03:57:43;102278.34;;;14.75;81.75
74045;BME280;62389;51.412;5.436;2023-10-08T04:00:13;102274.06;;;14.73;81.96
74045;BME280;62389;51.412;5.436;2023-10-08T04:02:47;102271.44;;;14.73;82.18
74045;BME280;62389;51.412;5.436;2023-10-08T04:05:26;102265.38;;;14.71;81.86
74045;BME280;62389;51.412;5.436;2023-10-08T04:08:06;102263.78;;;14.67;82.12
74045;BME280;62389;51.412;5.436;2023-10-08T04:10:42;102267.59;;;14.58;81.93
74045;BME280;62389;51.412;5.436;2023-10-08T04:13:08;102266.31;;;14.45;82.41
74045;BME280;62389;51.412;5.436;2023-10-08T04:15:37;102247.03;;;14.44;82.42
74045;BME280;62389;51.412;5.436;2023-10-08T04:18:10;102244.47;;;14.43;82.45
74045;BME280;62389;51.412;5.436;2023-10-08T04:20:36;102252.22;;;14.47;82.77
74045;BME280;62389;51.412;5.436;2023-10-08T04:23:06;102275.00;;;14.48;82.48
74045;BME280;62389;51.412;5.436;2023-10-08T04:25:39;102275.94;;;14.46;82.50
74045;BME280;62389;51.412;5.436;2023-10-08T04:28:04;102265.53;;;14.43;82.83
74045;BME280;62389;51.412;5.436;2023-10-08T04:30:34;102259.41;;;14.42;84.04
74045;BME280;62389;51.412;5.436;2023-10-08T04:33:01;102247.94;;;14.43;83.77
74045;BME280;62389;51.412;5.436;2023-10-08T04:35:37;102264.53;;;14.45;83.04
74045;BME280;62389;51.412;5.436;2023-10-08T04:38:15;102283.69;;;14.50;83.66
74045;BME280;62389;51.412;5.436;2023-10-08T04:40:44;102287.91;;;14.55;84.68
74045;BME280;62389;51.412;5.436;2023-10-08T04:43:23;102286.97;;;14.57;84.84
74045;BME280;62389;51.412;5.436;2023-10-08T04:45:54;102270.34;;;14.55;84.03
74045;BME280;62389;51.412;5.436;2023-10-08T04:48:19;102278.41;;;14.50;83.85
74045;BME280;62389;51.412;5.436;2023-10-08T04:50:49;102275.84;;;14.49;84.05
74045;BME280;62389;51.412;5.436;2023-10-08T04:53:34;102272.28;;;14.50;83.92
74045;BME280;62389;51.412;5.436;2023-10-08T04:56:07;102293.16;;;14.56;84.42
74045;BME280;62389;51.412;5.436;2023-10-08T04:58:40;102291.31;;;14.58;84.64
74045;BME280;62389;51.412;5.436;2023-10-08T05:01:08;102307.09;;;14.58;85.72
74045;BME280;62389;51.412;5.436;2023-10-08T05:03:50;102308.94;;;14.56;84.60
74045;BME280;62389;51.412;5.436;2023-10-08T05:06:29;102305.78;;;14.45;85.18
74045;BME280;62389;51.412;5.436;2023-10-08T05:09:05;102296.47;;;14.36;86.25
74045;BME280;62389;51.412;5.436;2023-10-08T05:11:38;102292.94;;;14.37;85.51
74045;BME280;62389;51.412;5.436;2023-10-08T05:14:22;102292.94;;;14.37;86.64
74045;BME280;62389;51.412;5.436;2023-10-08T05:17:01;102308.72;;;14.37;86.59
74045;BME280;62389;51.412;5.436;2023-10-08T05:19:36;102316.69;;;14.36;87.55
74045;BME280;62389;51.412;5.436;2023-10-08T05:22:12;102314.91;;;14.36;87.49
74045;BME280;62389;51.412;5.436;2023-10-08T05:24:47;102316.50;;;14.40;87.22
74045;BME280;62389;51.412;5.436;2023-10-08T05:27:42;102313.84;;;14.40;87.83
74045;BME280;62389;51.412;5.436;2023-10-08T05:30:20;102320.91;;;14.40;88.99
74045;BME280;62389;51.412;5.436;2023-10-08T05:33:07;102310.34;;;14.41;88.90
74045;BME280;62389;51.412;5.436;2023-10-08T05:35:44;102331.41;;;14.41;89.31
74045;BME280;62389;51.412;5.436;2023-10-08T05:38:19;102330.56;;;14.39;89.52
74045;BME280;62389;51.412;5.436;2023-10-08T05:41:00;102323.00;;;14.30;89.75
74045;BME280;62389;51.412;5.436;2023-10-08T05:43:30;102330.31;;;14.22;89.85
74045;BME280;62389;51.412;5.436;2023-10-08T05:46:09;102329.94;;;14.08;90.33
74045;BME280;62389;51.412;5.436;2023-10-08T05:48:52;102344.94;;;14.06;91.45
74045;BME280;62389;51.412;5.436;2023-10-08T05:51:37;102357.91;;;14.10;91.03
74045;BME280;62389;51.412;5.436;2023-10-08T05:54:19;102356.94;;;14.13;91.06
74045;BME280;62389;51.412;5.436;2023-10-08T05:57:00;102351.69;;;14.13;91.21
74045;BME280;62389;51.412;5.436;2023-10-08T05:59:34;102345.66;;;14.09;91.46
74045;BME280;62389;51.412;5.436;2023-10-08T06:02:27;102344.94;;;14.06;91.18
74045;BME280;62389;51.412;5.436;2023-10-08T06:04:57;102332.88;;;13.98;91.59
74045;BME280;62389;51.412;5.436;2023-10-08T06:07:42;102304.25;;;13.89;92.80
74045;BME280;62389;51.412;5.436;2023-10-08T06:10:31;102307.03;;;13.85;92.22
74045;BME280;62389;51.412;5.436;2023-10-08T06:13:01;102311.44;;;13.84;92.03
74045;BME280;62389;51.412;5.436;2023-10-08T06:15:51;102312.16;;;13.89;91.19
74045;BME280;62389;51.412;5.436;2023-10-08T06:18:32;102309.34;;;13.94;90.55
74045;BME280;62389;51.412;5.436;2023-10-08T06:20:59;102311.94;;;13.95;90.27
74045;BME280;62389;51.412;5.436;2023-10-08T06:23:26;102308.50;;;13.93;89.34
74045;BME280;62389;51.412;5.436;2023-10-08T06:25:53;102302.44;;;13.91;89.63
74045;BME280;62389;51.412;5.436;2023-10-08T06:28:22;102291.00;;;13.92;89.85
74045;BME280;62389;51.412;5.436;2023-10-08T06:30:54;102297.19;;;13.91;89.66
74045;BME280;62389;51.412;5.436;2023-10-08T06:33:21;102304.97;;;13.94;90.10
74045;BME280;62389;51.412;5.436;2023-10-08T06:35:47;102312.69;;;13.99;88.57
74045;BME280;62389;51.412;5.436;2023-10-08T06:38:30;102324.06;;;13.99;89.61
74045;BME280;62389;51.412;5.436;2023-10-08T06:41:03;102327.56;;;14.00;89.24
74045;BME280;62389;51.412;5.436;2023-10-08T06:43:55;102326.75;;;13.98;90.15
74045;BME280;62389;51.412;5.436;2023-10-08T06:46:29;102328.38;;;14.02;89.53
74045;BME280;62389;51.412;5.436;2023-10-08T06:49:02;102339.53;;;14.09;89.69
74045;BME280;62389;51.412;5.436;2023-10-08T06:51:28;102336.84;;;14.10;89.68
74045;BME280;62389;51.412;5.436;2023-10-08T06:53:55;102328.81;;;14.15;88.85
74045;BME280;62389;51.412;5.436;2023-10-08T06:56:24;102326.38;;;14.09;89.86
74045;BME280;62389;51.412;5.436;2023-10-08T06:58:50;102328.09;;;14.10;89.54
74045;BME280;62389;51.412;5.436;2023-10-08T07:01:19;102336.69;;;14.15;89.95
74045;BME280;62389;51.412;5.436;2023-10-08T07:03:50;102340.84;;;14.22;90.23
74045;BME280;62389;51.412;5.436;2023-10-08T07:06:16;102340.53;;;14.31;88.50
74045;BME280;62389;51.412;5.436;2023-10-08T07:08:43;102343.00;;;14.36;90.37
74045;BME280;62389;51.412;5.436;2023-10-08T07:11:12;102345.41;;;14.42;90.56
74045;BME280;62389;51.412;5.436;2023-10-08T07:13:39;102347.00;;;14.47;90.60
74045;BME280;62389;51.412;5.436;2023-10-08T07:16:07;102355.59;;;14.53;90.07
74045;BME280;62389;51.412;5.436;2023-10-08T07:18:37;102346.66;;;14.57;90.30
74045;BME280;62389;51.412;5.436;2023-10-08T07:21:02;102351.69;;;14.63;90.50
74045;BME280;62389;51.412;5.436;2023-10-08T07:23:29;102347.91;;;14.70;90.45
74045;BME280;62389;51.412;5.436;2023-10-08T07:28:24;102354.22;;;14.89;90.94
74045;BME280;62389;51.412;5.436;2023-10-08T07:30:50;102345.69;;;15.06;89.01
74045;BME280;62389;51.412;5.436;2023-10-08T07:33:17;102359.31;;;15.39;89.63
74045;BME280;62389;51.412;5.436;2023-10-08T07:35:47;102366.50;;;15.79;89.05
74045;BME280;62389;51.412;5.436;2023-10-08T07:38:38;102364.63;;;16.24;86.86
74045;BME280;62389;51.412;5.436;2023-10-08T07:41:13;102362.03;;;16.63;84.84
74045;BME280;62389;51.412;5.436;2023-10-08T07:43:43;102359.81;;;16.93;84.12
74045;BME280;62389;51.412;5.436;2023-10-08T07:46:09;102368.78;;;17.27;82.48
74045;BME280;62389;51.412;5.436;2023-10-08T07:48:38;102367.03;;;17.64;81.48
74045;BME280;62389;51.412;5.436;2023-10-08T07:51:09;102371.34;;;18.01;79.75
74045;BME280;62389;51.412;5.436;2023-10-08T07:53:35;102367.84;;;18.35;78.26
74045;BME280;62389;51.412;5.436;2023-10-08T07:56:06;102376.63;;;18.53;75.86
74045;BME280;62389;51.412;5.436;2023-10-08T07:58:35;102375.25;;;18.79;76.45
74045;BME280;62389;51.412;5.436;2023-10-08T08:01:05;102374.94;;;19.17;75.70
74045;BME280;62389;51.412;5.436;2023-10-08T08:03:35;102370.16;;;19.55;73.76
74045;BME280;62389;51.412;5.436;2023-10-08T08:06:03;102377.69;;;19.62;70.81
74045;BME280;62389;51.412;5.436;2023-10-08T08:08:34;102382.31;;;19.75;71.76
74045;BME280;62389;51.412;5.436;2023-10-08T08:11:04;102377.28;;;20.00;70.05
74045;BME280;62389;51.412;5.436;2023-10-08T08:13:35;102385.00;;;20.19;69.27
74045;BME280;62389;51.412;5.436;2023-10-08T08:16:01;102379.97;;;20.14;69.10
74045;BME280;62389;51.412;5.436;2023-10-08T08:18:41;102393.69;;;20.07;69.81
74045;BME280;62389;51.412;5.436;2023-10-08T08:21:09;102403.03;;;19.84;71.30
74045;BME280;62389;51.412;5.436;2023-10-08T08:23:39;102413.47;;;19.55;71.93
74045;BME280;62389;51.412;5.436;2023-10-08T08:26:04;102411.44;;;19.29;71.73
74045;BME280;62389;51.412;5.436;2023-10-08T08:28:38;102414.47;;;19.05;73.27
74045;BME280;62389;51.412;5.436;2023-10-08T08:31:05;102410.16;;;18.87;73.74
74045;BME280;62389;51.412;5.436;2023-10-08T08:33:39;102414.78;;;18.66;76.36
74045;BME280;62389;51.412;5.436;2023-10-08T08:36:23;102428.22;;;18.46;76.80
74045;BME280;62389;51.412;5.436;2023-10-08T08:38:49;102434.91;;;18.35;76.77
74045;BME280;62389;51.412;5.436;2023-10-08T08:41:15;102426.66;;;18.24;77.55
74045;BME280;62389;51.412;5.436;2023-10-08T08:43:48;102434.22;;;18.15;77.59
74045;BME280;62389;51.412;5.436;2023-10-08T08:46:14;102435.47;;;18.07;78.51
74045;BME280;62389;51.412;5.436;2023-10-08T08:48:41;102433.19;;;18.00;78.47
74045;BME280;62389;51.412;5.436;2023-10-08T08:51:07;102444.13;;;17.92;79.44
74045;BME280;62389;51.412;5.436;2023-10-08T08:53:35;102452.47;;;17.84;80.21
74045;BME280;62389;51.412;5.436;2023-10-08T08:56:01;102452.78;;;17.78;80.67
74045;BME280;62389;51.412;5.436;2023-10-08T08:58:33;102437.13;;;17.74;81.72
74045;BME280;62389;51.412;5.436;2023-10-08T09:00:59;102441.38;;;17.76;82.51
74045;BME280;62389;51.412;5.436;2023-10-08T09:03:25;102437.94;;;17.93;82.64
74045;BME280;62389;51.412;5.436;2023-10-08T09:05:58;102445.34;;;18.04;82.20
74045;BME280;62389;51.412;5.436;2023-10-08T09:08:27;102447.78;;;18.08;82.22
74045;BME280;62389;51.412;5.436;2023-10-08T09:10:57;102450.25;;;18.11;81.48
74045;BME280;62389;51.412;5.436;2023-10-08T09:13:26;102446.19;;;18.22;80.77
74045;BME280;62389;51.412;5.436;2023-10-08T09:15:51;102447.00;;;18.58;81.97
74045;BME280;62389;51.412;5.436;2023-10-08T09:18:17;102443.84;;;18.85;80.96
74045;BME280;62389;51.412;5.436;2023-10-08T09:20:43;102451.72;;;18.86;80.74
74045;BME280;62389;51.412;5.436;2023-10-08T09:23:12;102449.16;;;18.85;80.37
74045;BME280;62389;51.412;5.436;2023-10-08T09:25:40;102443.72;;;18.88;80.32
74045;BME280;62389;51.412;5.436;2023-10-08T09:28:05;102443.00;;;18.84;80.32
74045;BME280;62389;51.412;5.436;2023-10-08T09:30:36;102449.53;;;18.77;79.54
74045;BME280;62389;51.412;5.436;2023-10-08T09:33:07;102444.44;;;18.74;81.45
74045;BME280;62389;51.412;5.436;2023-10-08T09:35:33;102441.28;;;18.66;81.15
74045;BME280;62389;51.412;5.436;2023-10-08T09:38:02;102447.00;;;18.58;82.34
74045;BME280;62389;51.412;5.436;2023-10-08T09:40:28;102451.19;;;18.62;82.51
74045;BME280;62389;51.412;5.436;2023-10-08T09:42:55;102453.69;;;18.66;83.19
74045;BME280;62389;51.412;5.436;2023-10-08T09:45:21;102457.13;;;18.68;81.93
74045;BME280;62389;51.412;5.436;2023-10-08T09:47:52;102451.59;;;18.72;81.91
74045;BME280;62389;51.412;5.436;2023-10-08T09:50:26;102450.16;;;18.82;82.60
74045;BME280;62389;51.412;5.436;2023-10-08T09:53:08;102445.41;;;18.89;81.45
74045;BME280;62389;51.412;5.436;2023-10-08T09:55:44;102443.47;;;18.93;80.97
74045;BME280;62389;51.412;5.436;2023-10-08T09:58:11;102451.94;;;18.99;82.81
74045;BME280;62389;51.412;5.436;2023-10-08T10:00:40;102445.53;;;19.03;81.71
74045;BME280;62389;51.412;5.436;2023-10-08T10:03:08;102450.66;;;19.06;81.47
74045;BME280;62389;51.412;5.436;2023-10-08T10:05:35;102453.16;;;19.09;80.90
74045;BME280;62389;51.412;5.436;2023-10-08T10:08:03;102447.75;;;19.11;80.60
74045;BME280;62389;51.412;5.436;2023-10-08T10:10:36;102445.97;;;19.11;80.91
74045;BME280;62389;51.412;5.436;2023-10-08T10:13:09;102437.06;;;19.12;81.42
74045;BME280;62389;51.412;5.436;2023-10-08T10:15:38;102424.94;;;19.08;81.11
74045;BME280;62389;51.412;5.436;2023-10-08T10:18:13;102415.81;;;18.97;81.73
74045;BME280;62389;51.412;5.436;2023-10-08T10:21:00;102428.16;;;18.98;82.18
74045;BME280;62389;51.412;5.436;2023-10-08T10:23:43;102417.88;;;19.07;82.71
74045;BME280;62389;51.412;5.436;2023-10-08T10:26:31;102418.25;;;19.17;81.48
74045;BME280;62389;51.412;5.436;2023-10-08T10:29:17;102426.66;;;19.25;82.15
74045;BME280;62389;51.412;5.436;2023-10-08T10:31:45;102440.50;;;19.30;82.10
74045;BME280;62389;51.412;5.436;2023-10-08T10:34:16;102441.03;;;19.37;81.39
74045;BME280;62389;51.412;5.436;2023-10-08T10:36:44;102440.41;;;19.48;81.49
74045;BME280;62389;51.412;5.436;2023-10-08T10:39:13;102440.94;;;19.54;80.29
74045;BME280;62389;51.412;5.436;2023-10-08T10:41:45;102441.38;;;19.47;79.64
74045;BME280;62389;51.412;5.436;2023-10-08T10:44:17;102438.81;;;19.45;81.40
74045;BME280;62389;51.412;5.436;2023-10-08T10:46:44;102438.31;;;19.38;81.75
74045;BME280;62389;51.412;5.436;2023-10-08T10:49:16;102429.19;;;19.27;82.84
74045;BME280;62389;51.412;5.436;2023-10-08T10:51:50;102442.06;;;19.19;83.40
74045;BME280;62389;51.412;5.436;2023-10-08T10:54:22;102438.59;;;19.17;84.23
74045;BME280;62389;51.412;5.436;2023-10-08T10:56:50;102437.84;;;19.30;84.90
74045;BME280;62389;51.412;5.436;2023-10-08T10:59:34;102439.25;;;19.53;83.59
74045;BME280;62389;51.412;5.436;2023-10-08T11:02:06;102433.75;;;19.56;81.79
74045;BME280;62389;51.412;5.436;2023-10-08T11:04:48;102427.00;;;19.51;83.49
74045;BME280;62389;51.412;5.436;2023-10-08T11:07:16;102435.22;;;19.46;82.86
74045;BME280;62389;51.412;5.436;2023-10-08T11:09:43;102427.50;;;19.41;82.46
74045;BME280;62389;51.412;5.436;2023-10-08T11:12:10;102433.84;;;19.39;84.42
74045;BME280;62389;51.412;5.436;2023-10-08T11:14:42;102425.94;;;19.37;83.30
74045;BME280;62389;51.412;5.436;2023-10-08T11:17:25;102428.34;;;19.42;83.22
74045;BME280;62389;51.412;5.436;2023-10-08T11:19:51;102427.34;;;19.45;84.28
74045;BME280;62389;51.412;5.436;2023-10-08T11:22:18;102434.25;;;19.47;83.59
74045;BME280;62389;51.412;5.436;2023-10-08T11:24:45;102435.03;;;19.49;84.21
74045;BME280;62389;51.412;5.436;2023-10-08T11:27:18;102436.00;;;19.48;84.03
74045;BME280;62389;51.412;5.436;2023-10-08T11:29:54;102435.47;;;19.41;85.36
74045;BME280;62389;51.412;5.436;2023-10-08T11:32:24;102436.91;;;19.31;85.39
74045;BME280;62389;51.412;5.436;2023-10-08T11:34:58;102433.75;;;19.25;84.15
74045;BME280;62389;51.412;5.436;2023-10-08T11:37:45;102436.56;;;19.22;85.06
74045;BME280;62389;51.412;5.436;2023-10-08T11:40:10;102430.50;;;19.20;85.57
74045;BME280;62389;51.412;5.436;2023-10-08T11:42:53;102429.53;;;19.21;86.52
74045;BME280;62389;51.412;5.436;2023-10-08T11:45:22;102422.34;;;19.23;85.51
74045;BME280;62389;51.412;5.436;2023-10-08T11:48:06;102429.41;;;19.24;85.00
74045;BME280;62389;51.412;5.436;2023-10-08T11:50:37;102415.53;;;19.19;85.23
74045;BME280;62389;51.412;5.436;2023-10-08T11:53:04;102422.69;;;19.17;86.82
74045;BME280;62389;51.412;5.436;2023-10-08T11:55:33;102419.97;;;19.18;85.66
74045;BME280;62389;51.412;5.436;2023-10-08T11:58:05;102418.84;;;19.22;87.46
74045;BME280;62389;51.412;5.436;2023-10-08T12:00:42;102410.47;;;19.30;87.34
74045;BME280;62389;51.412;5.436;2023-10-08T12:03:11;102402.88;;;19.39;87.31
74045;BME280;62389;51.412;5.436;2023-10-08T12:05:38;102405.25;;;19.44;85.77
74045;BME280;62389;51.412;5.436;2023-10-08T12:08:16;102404.16;;;19.48;86.31
74045;BME280;62389;51.412;5.436;2023-10-08T12:10:46;102398.84;;;19.48;86.06
74045;BME280;62389;51.412;5.436;2023-10-08T12:13:12;102388.13;;;19.50;86.11
74045;BME280;62389;51.412;5.436;2023-10-08T12:15:37;102395.16;;;19.51;85.65
74045;BME280;62389;51.412;5.436;2023-10-08T12:18:07;102385.03;;;19.57;85.49
74045;BME280;62389;51.412;5.436;2023-10-08T12:20:51;102380.28;;;19.64;85.83
74045;BME280;62389;51.412;5.436;2023-10-08T12:23:16;102384.53;;;19.66;84.97
74045;BME280;62389;51.412;5.436;2023-10-08T12:25:57;102389.84;;;19.66;85.23
74045;BME280;62389;51.412;5.436;2023-10-08T12:28:23;102384.63;;;19.65;85.33
74045;BME280;62389;51.412;5.436;2023-10-08T12:30:49;102383.78;;;19.64;85.31
74045;BME280;62389;51.412;5.436;2023-10-08T12:33:18;102387.44;;;19.62;85.42
74045;BME280;62389;51.412;5.436;2023-10-08T12:35:46;102380.44;;;19.61;86.28
74045;BME280;62389;51.412;5.436;2023-10-08T12:38:13;102382.31;;;19.59;85.06
74045;BME280;62389;51.412;5.436;2023-10-08T12:40:41;102379.50;;;19.62;85.46
74045;BME280;62389;51.412;5.436;2023-10-08T12:43:12;102386.44;;;19.64;83.96
74045;BME280;62389;51.412;5.436;2023-10-08T12:45:38;102382.94;;;19.64;84.27
74045;BME280;62389;51.412;5.436;2023-10-08T12:48:03;102379.91;;;19.70;84.80
74045;BME280;62389;51.412;5.436;2023-10-08T12:50:30;102374.16;;;19.78;84.16
74045;BME280;62389;51.412;5.436;2023-10-08T12:53:04;102378.53;;;19.79;84.68
74045;BME280;62389;51.412;5.436;2023-10-08T12:55:31;102367.72;;;19.82;84.54
74045;BME280;62389;51.412;5.436;2023-10-08T12:57:56;102365.97;;;19.97;84.09
74045;BME280;62389;51.412;5.436;2023-10-08T13:00:35;102357.97;;;20.27;83.29
74045;BME280;62389;51.412;5.436;2023-10-08T13:03:03;102350.44;;;20.49;81.30
74045;BME280;62389;51.412;5.436;2023-10-08T13:05:31;102351.09;;;20.67;80.73
74045;BME280;62389;51.412;5.436;2023-10-08T13:07:59;102346.84;;;20.64;79.98
74045;BME280;62389;51.412;5.436;2023-10-08T13:10:29;102342.66;;;20.60;81.29
74045;BME280;62389;51.412;5.436;2023-10-08T13:12:56;102341.22;;;20.55;81.99